Time;durP1;ratioP1;P1;durP2;ratioP2;P2;SDS_P1;SDS_P2;PMS_P1;PMS_P2;Temp;Humidity;BMP_temperature;BMP_pressure;BME280_temperature;BME280_humidity;BME280_pressure;Samples;Min_cycle;Max_cycle;Signal;HPM_P1;HPM_P2
2021/01/05 00:00:09;;;;;;;17.90;12.03;;;;;;;1.24;97.35;97594.00;5116081;28;20241;-71
2021/01/05 00:02:35;;;;;;;20.10;12.07;;;;;;;1.25;97.18;97598.34;5116026;28;20299;-71
2021/01/05 00:05:01;;;;;;;17.43;11.20;;;;;;;1.18;97.74;97591.66;5116411;28;20685;-72
2021/01/05 00:07:28;;;;;;;19.50;12.50;;;;;;;1.17;98.31;97594.34;5116056;28;20221;-69
2021/01/05 00:09:54;;;;;;;18.77;12.03;;;;;;;1.17;98.96;97594.34;5116281;28;20206;-70
2021/01/05 00:12:20;;;;;;;18.63;11.73;;;;;;;1.21;99.48;97586.34;5116253;28;21593;-69
2021/01/05 00:14:48;;;;;;;18.23;12.43;;;;;;;1.21;98.67;97583.75;5114521;28;20214;-70
2021/01/05 00:17:15;;;;;;;19.37;11.77;;;;;;;1.21;98.27;97586.34;5115792;28;20205;-67
2021/01/05 00:19:41;;;;;;;17.80;11.60;;;;;;;1.25;98.21;97587.91;5115953;28;20668;-70
2021/01/05 00:22:07;;;;;;;18.27;11.70;;;;;;;1.21;98.23;97588.94;5116085;28;20233;-69
2021/01/05 00:24:35;;;;;;;19.43;12.50;;;;;;;1.19;98.59;97588.16;5116062;28;20210;-68
2021/01/05 00:27:01;;;;;;;18.60;11.00;;;;;;;1.22;98.09;97585.44;5115736;28;20217;-68
2021/01/05 00:29:28;;;;;;;19.70;11.93;;;;;;;1.21;98.44;97586.34;5115814;28;20214;-68
2021/01/05 00:32:03;;;;;;;17.73;11.57;;;;;;;1.21;98.77;97586.34;5115941;28;20569;-68
2021/01/05 00:34:29;;;;;;;18.50;11.60;;;;;;;1.26;98.51;97594.81;5115928;28;20210;-68
2021/01/05 00:36:55;;;;;;;17.63;11.00;;;;;;;1.23;98.07;97592.31;5115751;28;20304;-68
2021/01/05 00:39:22;;;;;;;18.80;11.83;;;;;;;1.24;98.69;97598.38;5115708;28;20334;-68
2021/01/05 00:41:49;;;;;;;17.13;11.63;;;;;;;1.29;99.12;97594.66;5113788;28;20230;-68
2021/01/05 00:44:15;;;;;;;17.07;11.33;;;;;;;1.30;99.25;97593.75;5115359;28;20214;-68
2021/01/05 00:46:41;;;;;;;17.73;11.17;;;;;;;1.33;98.75;97596.25;5115444;28;20279;-68
2021/01/05 00:49:07;;;;;;;16.60;10.77;;;;;;;1.35;99.13;97604.84;5115547;28;20206;-74
2021/01/05 00:51:33;;;;;;;18.53;11.93;;;;;;;1.33;98.76;97601.44;5115440;28;20297;-68
2021/01/05 00:53:59;;;;;;;18.10;10.83;;;;;;;1.36;99.59;97603.09;5115545;28;20651;-70
2021/01/05 00:56:25;;;;;;;17.37;11.27;;;;;;;1.40;99.47;97605.50;5115272;28;20571;-71
2021/01/05 00:58:52;;;;;;;15.37;10.00;;;;;;;1.44;99.68;97607.06;5115245;28;20234;-70
2021/01/05 01:01:19;;;;;;;17.13;10.90;;;;;;;1.42;99.35;97600.22;5115109;28;20251;-70
2021/01/05 01:03:45;;;;;;;17.87;11.83;;;;;;;1.43;99.06;97605.38;5115345;28;20230;-71
2021/01/05 01:06:11;;;;;;;17.83;11.23;;;;;;;1.44;98.87;97603.59;5115473;28;20631;-70
2021/01/05 01:08:37;;;;;;;18.87;11.20;;;;;;;1.45;99.89;97606.16;5112829;28;20209;-69
2021/01/05 01:11:03;;;;;;;18.13;11.87;;;;;;;1.47;99.55;97606.94;5115253;28;20302;-70
2021/01/05 01:13:29;;;;;;;18.07;11.53;;;;;;;1.47;99.32;97609.53;5115206;28;20690;-70
2021/01/05 01:15:56;;;;;;;20.50;11.43;;;;;;;1.44;99.78;97611.41;5114913;28;20585;-70
2021/01/05 01:18:22;;;;;;;19.57;11.73;;;;;;;1.47;100.00;97608.69;5115038;28;20205;-70
2021/01/05 01:20:48;;;;;;;19.30;12.00;;;;;;;1.42;100.00;97614.06;5115223;28;20259;-69
2021/01/05 01:23:14;;;;;;;19.37;11.00;;;;;;;1.46;100.00;97607.84;5114644;28;20320;-75
2021/01/05 01:25:40;;;;;;;23.77;12.70;;;;;;;1.51;100.00;97610.25;5114899;28;20206;-71
2021/01/05 01:28:06;;;;;;;20.30;12.90;;;;;;;1.50;100.00;97604.22;5114765;28;20216;-71
2021/01/05 01:30:32;;;;;;;19.17;11.07;;;;;;;1.49;100.00;97607.72;5114755;28;20676;-72
2021/01/05 01:32:59;;;;;;;17.07;11.30;;;;;;;1.50;100.00;97599.00;5114504;28;20225;-71
2021/01/05 01:35:25;;;;;;;17.67;11.40;;;;;;;1.52;100.00;97607.59;5112793;27;20203;-73
2021/01/05 01:37:51;;;;;;;21.83;12.60;;;;;;;1.56;100.00;97605.69;5114495;28;20301;-73
2021/01/05 01:40:24;;;;;;;21.60;12.90;;;;;;;1.51;100.00;97599.84;5114313;28;20733;-75
2021/01/05 01:42:50;;;;;;;20.50;12.73;;;;;;;1.52;100.00;97599.78;5114493;28;20226;-70
2021/01/05 01:45:23;;;;;;;18.67;10.87;;;;;;;1.56;100.00;97603.97;5114233;28;20252;-71
2021/01/05 01:47:50;;;;;;;20.47;12.30;;;;;;;1.60;100.00;97602.91;5114542;28;20575;-71
2021/01/05 01:50:23;;;;;;;18.10;11.73;;;;;;;1.56;100.00;97608.31;5115022;28;20217;-71
2021/01/05 01:53:22;;;;;;;19.17;12.57;;;;;;;1.52;100.00;97604.13;5114614;28;20210;-70
2021/01/05 01:55:59;;;;;;;20.83;12.63;;;;;;;1.50;100.00;97608.56;5114539;28;20258;-70
2021/01/05 01:58:39;;;;;;;18.40;11.80;;;;;;;1.55;100.00;97606.63;5114730;27;20248;-70
2021/01/05 02:01:15;;;;;;;21.97;12.57;;;;;;;1.57;100.00;97604.78;5113374;28;20202;-71
2021/01/05 02:04:00;;;;;;;21.10;12.93;;;;;;;1.57;100.00;97605.66;5114699;28;20234;-70
2021/01/05 02:06:40;;;;;;;20.83;12.80;;;;;;;1.50;100.00;97604.22;5114455;28;20256;-71
2021/01/05 02:09:27;;;;;;;20.57;12.87;;;;;;;1.49;100.00;97612.09;5114546;28;20210;-71
2021/01/05 02:12:01;;;;;;;19.20;12.90;;;;;;;1.46;100.00;97607.84;5114571;28;20211;-72
2021/01/05 02:14:41;;;;;;;19.23;12.57;;;;;;;1.49;100.00;97605.13;5114591;28;20206;-73
2021/01/05 02:17:28;;;;;;;21.67;13.03;;;;;;;1.55;100.00;97606.63;5114416;28;20562;-73
2021/01/05 02:19:58;;;;;;;21.80;12.97;;;;;;;1.52;100.00;97599.78;5113897;28;20202;-72
2021/01/05 02:22:38;;;;;;;20.00;12.70;;;;;;;1.53;100.00;97598.88;5113348;28;20234;-73
2021/01/05 02:25:10;;;;;;;22.37;13.23;;;;;;;1.54;100.00;97599.72;5114286;28;20209;-71
2021/01/05 02:27:44;;;;;;;19.27;11.47;;;;;;;1.57;100.00;97597.84;5112760;28;20243;-71
2021/01/05 02:30:14;;;;;;;19.67;12.23;;;;;;;1.60;100.00;97602.91;5113809;28;20209;-76
2021/01/05 02:32:46;;;;;;;19.33;12.90;;;;;;;1.60;100.00;97594.25;5113893;28;20680;-74
2021/01/05 02:35:39;;;;;;;22.93;13.47;;;;;;;1.59;100.00;97592.56;5114242;28;20205;-74
2021/01/05 02:38:24;;;;;;;24.63;14.47;;;;;;;1.65;99.70;97593.13;5114209;28;20660;-72
2021/01/05 02:41:10;;;;;;;26.37;13.57;;;;;;;1.67;99.48;97593.91;5114142;28;20209;-69
2021/01/05 02:44:04;;;;;;;25.00;13.37;;;;;;;1.60;98.85;97595.09;5113918;28;20243;-72
2021/01/05 02:46:49;;;;;;;22.77;13.53;;;;;;;1.62;99.03;97588.06;5113953;28;20211;-72
2021/01/05 02:49:30;;;;;;;20.93;12.93;;;;;;;1.60;99.05;97596.84;5113644;28;20211;-72
2021/01/05 02:52:46;;;;;;;23.37;13.03;;;;;;;1.62;100.00;97592.41;5111876;28;20238;-72
2021/01/05 02:55:57;;;;;;;22.97;13.40;;;;;;;1.61;100.00;97591.56;5113723;28;20209;-74
2021/01/05 02:58:37;;;;;;;21.47;12.70;;;;;;;1.60;99.66;97584.66;5113649;28;20230;-70
2021/01/05 03:01:42;;;;;;;24.10;14.13;;;;;;;1.63;99.51;97592.38;5113611;28;20270;-70
2021/01/05 03:04:08;;;;;;;21.87;13.30;;;;;;;1.55;100.00;97576.22;5113362;28;20202;-72
2021/01/05 03:06:40;;;;;;;24.53;14.33;;;;;;;1.58;100.00;97581.28;5113372;28;20210;-72
2021/01/05 03:09:26;;;;;;;18.73;12.30;;;;;;;1.61;99.36;97585.53;5113632;28;20210;-72
2021/01/05 03:12:13;;;;;;;23.07;13.23;;;;;;;1.58;99.63;97565.66;5113551;28;20213;-73
2021/01/05 03:14:53;;;;;;;24.30;14.33;;;;;;;1.64;100.00;97575.81;5113635;28;20254;-73
2021/01/05 03:17:27;;;;;;;26.00;14.10;;;;;;;1.61;100.00;97575.09;5112881;28;20304;-73
2021/01/05 03:20:04;;;;;;;23.20;14.37;;;;;;;1.49;100.00;97586.91;5112961;28;20263;-74
2021/01/05 03:22:33;;;;;;;26.03;15.33;;;;;;;1.53;100.00;97582.41;5113453;28;20225;-73
2021/01/05 03:25:01;;;;;;;22.50;13.27;;;;;;;1.58;100.00;97586.50;5113585;28;20225;-73
2021/01/05 03:27:28;;;;;;;24.83;13.70;;;;;;;1.54;100.00;97581.50;5113547;28;20205;-73
2021/01/05 03:29:56;;;;;;;25.37;14.50;;;;;;;1.59;100.00;97584.75;5113373;28;20209;-71
2021/01/05 03:32:23;;;;;;;23.73;14.93;;;;;;;1.58;100.00;97581.28;5094615;28;20207;-70
2021/01/05 03:34:49;;;;;;;28.23;15.97;;;;;;;1.54;100.00;97579.72;5097275;28;20210;-69
2021/01/05 03:37:15;;;;;;;23.07;14.30;;;;;;;1.53;100.00;97583.22;5097224;28;20249;-72
2021/01/05 03:39:41;;;;;;;27.03;15.97;;;;;;;1.56;100.00;97585.72;5097219;28;20202;-70
2021/01/05 03:42:07;;;;;;;28.33;16.00;;;;;;;1.53;100.00;97574.59;5096603;28;20318;-74
2021/01/05 03:44:34;;;;;;;24.27;15.13;;;;;;;1.65;100.00;97577.50;5095458;28;20202;-71
2021/01/05 03:47:00;;;;;;;21.83;14.37;;;;;;;1.60;100.00;97581.22;5096779;28;20202;-71
2021/01/05 03:49:27;;;;;;;26.60;15.90;;;;;;;1.63;100.00;97574.13;5096659;28;20696;-71
2021/01/05 03:51:53;;;;;;;25.40;15.33;;;;;;;1.69;100.00;97584.28;5096801;28;20217;-74
2021/01/05 03:54:22;;;;;;;26.30;15.17;;;;;;;1.59;100.00;97582.97;5096637;28;20206;-73
2021/01/05 03:56:48;;;;;;;24.50;14.53;;;;;;;1.60;100.00;97584.66;5096596;28;20217;-72
2021/01/05 03:59:14;;;;;;;26.90;15.40;;;;;;;1.60;100.00;97589.88;5096592;28;20753;-73
2021/01/05 04:01:48;;;;;;;28.57;17.33;;;;;;;1.65;100.00;97574.91;5096753;28;20256;-70
2021/01/05 04:04:14;;;;;;;24.07;15.53;;;;;;;1.62;100.00;97575.06;5096741;28;20213;-69
2021/01/05 04:06:41;;;;;;;26.50;15.50;;;;;;;1.68;100.00;97582.59;5096391;28;20238;-69
2021/01/05 04:09:07;;;;;;;21.70;14.50;;;;;;;1.75;100.00;97584.03;5096598;28;20211;-70
2021/01/05 04:11:33;;;;;;;26.00;16.70;;;;;;;1.59;100.00;97582.97;5094853;28;20230;-67
2021/01/05 04:13:59;;;;;;;26.17;16.53;;;;;;;1.62;100.00;97582.88;5096177;28;20215;-69
2021/01/05 04:16:25;;;;;;;27.00;15.37;;;;;;;1.65;100.00;97590.53;5096445;28;20302;-69
2021/01/05 04:18:50;;;;;;;25.00;15.67;;;;;;;1.72;100.00;97576.31;5096399;28;20664;-69
2021/01/05 04:21:16;;;;;;;25.47;14.77;;;;;;;1.75;100.00;97583.16;5096349;28;20215;-68
2021/01/05 04:23:43;;;;;;;25.80;15.30;;;;;;;1.75;100.00;97584.03;5095843;28;20239;-68
2021/01/05 04:26:10;;;;;;;24.80;15.77;;;;;;;1.71;100.00;97574.63;5096231;28;20210;-68
2021/01/05 04:28:36;;;;;;;23.50;15.43;;;;;;;1.71;100.00;97574.63;5096178;28;20569;-68
2021/01/05 04:31:02;;;;;;;23.70;14.83;;;;;;;1.68;100.00;97581.75;5105354;28;20210;-67
2021/01/05 04:33:28;;;;;;;26.37;15.50;;;;;;;1.74;100.00;97571.91;5116599;28;20206;-68
2021/01/05 04:35:54;;;;;;;24.67;15.70;;;;;;;1.70;100.00;97575.56;5114815;28;20585;-68
2021/01/05 04:38:20;;;;;;;24.97;16.40;;;;;;;1.69;100.00;97584.28;5116214;28;20246;-68
2021/01/05 04:40:47;;;;;;;24.97;15.10;;;;;;;1.74;100.00;97582.34;5116129;28;20291;-68
2021/01/05 04:43:21;;;;;;;23.00;14.17;;;;;;;1.69;100.00;97579.06;5115704;28;20230;-68
2021/01/05 04:45:54;;;;;;;25.33;14.43;;;;;;;1.66;100.00;97579.19;5116104;28;20292;-67
2021/01/05 04:48:37;;;;;;;23.50;14.63;;;;;;;1.69;100.00;97584.28;5116236;28;20213;-68
2021/01/05 04:51:12;;;;;;;23.90;14.67;;;;;;;1.75;100.00;97577.94;5115971;28;20205;-72
2021/01/05 04:53:47;;;;;;;22.63;14.60;;;;;;;1.72;100.00;97584.13;5116084;28;20215;-72
2021/01/05 04:56:15;;;;;;;24.60;14.63;;;;;;;1.74;100.00;97587.56;5115831;28;20670;-72
2021/01/05 04:58:46;;;;;;;24.67;15.17;;;;;;;1.74;100.00;97591.91;5115860;28;20690;-72
2021/01/05 05:01:17;;;;;;;23.47;14.67;;;;;;;1.80;100.00;97591.63;5115793;28;20260;-72
2021/01/05 05:03:52;;;;;;;22.77;15.23;;;;;;;1.78;100.00;97589.09;5114785;28;20687;-72
2021/01/05 05:06:34;;;;;;;22.87;14.97;;;;;;;1.70;100.00;97593.78;5115894;28;20228;-72
2021/01/05 05:09:13;;;;;;;26.40;14.90;;;;;;;1.73;100.00;97604.06;5115532;28;20671;-69
2021/01/05 05:11:52;;;;;;;23.13;14.90;;;;;;;1.77;100.00;97600.44;5115522;28;20217;-69
2021/01/05 05:14:26;;;;;;;22.93;15.87;;;;;;;1.73;100.00;97600.63;5115714;28;20214;-68
2021/01/05 05:17:11;;;;;;;22.03;14.73;;;;;;;1.77;100.00;97608.25;5115387;28;20685;-69
2021/01/05 05:19:49;;;;;;;26.00;15.50;;;;;;;1.74;100.00;97605.78;5115657;28;20210;-68
2021/01/05 05:22:23;;;;;;;22.70;14.57;;;;;;;1.71;100.00;97605.91;5115300;28;20598;-69
2021/01/05 05:24:55;;;;;;;22.77;15.10;;;;;;;1.78;100.00;97602.13;5115592;28;20219;-69
2021/01/05 05:27:29;;;;;;;21.73;14.80;;;;;;;1.89;100.00;97602.50;5114731;28;20209;-69
2021/01/05 05:29:58;;;;;;;23.00;14.60;;;;;;;1.86;100.00;97612.22;5114948;28;20209;-68
2021/01/05 05:32:31;;;;;;;21.27;14.33;;;;;;;1.87;100.00;97603.47;5095058;28;20211;-69
2021/01/05 05:35:12;;;;;;;20.53;13.90;;;;;;;1.88;100.00;97616.44;5094738;28;20548;-68
2021/01/05 05:37:52;;;;;;;22.43;14.53;;;;;;;1.93;100.00;97611.03;5094564;28;20210;-68
2021/01/05 05:40:31;;;;;;;20.90;13.67;;;;;;;1.91;100.00;97608.47;5094873;28;20587;-68
2021/01/05 05:43:10;;;;;;;21.53;13.93;;;;;;;1.96;100.00;97614.34;5094294;28;20717;-68
2021/01/05 05:45:41;;;;;;;19.57;12.97;;;;;;;1.97;100.00;97617.81;5094649;28;20263;-70
2021/01/05 05:48:15;;;;;;;23.47;14.43;;;;;;;1.94;100.00;97620.53;5094610;28;20210;-70
2021/01/05 05:50:55;;;;;;;22.50;15.00;;;;;;;1.98;100.00;97622.97;5096188;28;20209;-68
2021/01/05 05:53:25;;;;;;;23.37;14.70;;;;;;;2.04;100.00;97622.69;5095199;28;20217;-69
2021/01/05 05:55:58;;;;;;;21.67;14.57;;;;;;;1.98;100.00;97628.19;5095645;28;20211;-68
2021/01/05 05:58:28;;;;;;;22.17;14.13;;;;;;;2.03;100.00;97625.38;5096234;28;20245;-68
2021/01/05 06:00:57;;;;;;;23.70;15.33;;;;;;;1.94;100.00;97626.59;5095008;28;20207;-70
2021/01/05 06:03:25;;;;;;;22.53;13.80;;;;;;;1.92;100.00;97628.44;5094366;28;20239;-68
2021/01/05 06:05:51;;;;;;;22.60;14.60;;;;;;;1.98;100.00;97633.38;5093980;28;20210;-74
2021/01/05 06:08:19;;;;;;;19.80;13.20;;;;;;;1.93;100.00;97635.34;5094111;28;20207;-75
2021/01/05 06:10:46;;;;;;;22.10;13.70;;;;;;;1.94;100.00;97642.25;5094228;28;20261;-75
2021/01/05 06:13:13;;;;;;;22.57;14.20;;;;;;;1.96;100.00;97640.41;5093861;28;20214;-74
2021/01/05 06:15:39;;;;;;;21.67;13.50;;;;;;;2.03;100.00;97641.81;5094087;28;20221;-75
2021/01/05 06:18:08;;;;;;;21.43;13.63;;;;;;;1.97;100.00;97652.50;5094076;28;20575;-75
2021/01/05 06:20:34;;;;;;;20.57;13.07;;;;;;;1.89;100.00;97654.59;5092214;28;20210;-75
2021/01/05 06:23:00;;;;;;;20.17;13.33;;;;;;;1.95;100.00;97654.34;5093565;28;20230;-74
2021/01/05 06:25:27;;;;;;;19.87;12.67;;;;;;;2.01;100.00;97656.69;5093981;28;20301;-75
2021/01/05 06:27:53;;;;;;;19.20;13.13;;;;;;;2.06;100.00;97661.69;5093717;28;20207;-75
2021/01/05 06:30:20;;;;;;;19.43;13.07;;;;;;;2.02;100.00;97658.38;5097246;28;20251;-69
2021/01/05 06:32:48;;;;;;;21.93;13.87;;;;;;;1.99;100.00;97655.06;5114282;28;20217;-68
2021/01/05 06:35:15;;;;;;;19.50;13.20;;;;;;;1.99;100.00;97650.72;5114133;28;20220;-67
2021/01/05 06:37:41;;;;;;;22.37;13.27;;;;;;;1.94;100.00;97646.59;5113758;28;20210;-69
2021/01/05 06:40:09;;;;;;;20.63;12.60;;;;;;;1.97;100.00;97647.31;5113999;28;20213;-68
2021/01/05 06:42:35;;;;;;;19.67;12.60;;;;;;;1.96;100.00;97656.03;5113691;28;20240;-69
2021/01/05 06:45:01;;;;;;;19.77;13.30;;;;;;;1.94;100.00;97657.88;5114100;28;20286;-68
2021/01/05 06:47:27;;;;;;;22.07;13.70;;;;;;;2.07;100.00;97658.19;5112056;28;20740;-69
2021/01/05 06:49:54;;;;;;;18.90;13.30;;;;;;;2.02;100.00;97661.00;5114011;28;20210;-69
2021/01/05 06:52:20;;;;;;;20.13;12.97;;;;;;;1.92;100.00;97657.09;5114053;28;20209;-70
2021/01/05 06:54:46;;;;;;;18.63;12.10;;;;;;;1.97;100.00;97662.09;5113941;28;20263;-69
2021/01/05 06:57:12;;;;;;;21.80;12.90;;;;;;;2.01;100.00;97667.13;5113554;28;20398;-69
2021/01/05 06:59:38;;;;;;;18.37;12.30;;;;;;;2.03;100.00;97667.88;5113482;28;20288;-70
2021/01/05 07:02:06;;;;;;;18.50;12.60;;;;;;;2.08;100.00;97668.53;5113661;28;20711;-70
2021/01/05 07:04:32;;;;;;;18.40;12.30;;;;;;;2.10;100.00;97673.69;5113607;28;20206;-71
2021/01/05 07:07:00;;;;;;;20.60;13.60;;;;;;;2.07;100.00;97669.47;5113255;28;20240;-70
2021/01/05 07:09:26;;;;;;;18.63;12.83;;;;;;;2.08;100.00;97676.34;5113494;28;20693;-70
2021/01/05 07:11:52;;;;;;;18.63;12.20;;;;;;;2.07;100.00;97669.47;5112026;28;20212;-70
2021/01/05 07:14:21;;;;;;;19.27;12.67;;;;;;;2.15;100.00;97666.53;5113696;28;20208;-71
2021/01/05 07:16:47;;;;;;;19.80;12.13;;;;;;;2.16;100.00;97674.28;5113695;28;20206;-70
2021/01/05 07:19:14;;;;;;;17.30;11.97;;;;;;;2.04;100.00;97669.59;5113759;28;20210;-68
2021/01/05 07:21:40;;;;;;;18.47;11.83;;;;;;;2.16;100.00;97671.69;5113419;28;20698;-67
2021/01/05 07:24:08;;;;;;;19.30;12.27;;;;;;;2.20;100.00;97681.06;5113586;28;20328;-67
2021/01/05 07:26:35;;;;;;;19.03;12.53;;;;;;;2.22;100.00;97679.25;5113573;28;20210;-68
2021/01/05 07:29:01;;;;;;;18.17;12.00;;;;;;;2.16;100.00;97681.25;5113253;28;20218;-67
2021/01/05 07:31:27;;;;;;;15.93;11.20;;;;;;;2.18;100.00;97682.88;5113416;28;20309;-68
2021/01/05 07:33:54;;;;;;;19.23;12.23;;;;;;;2.17;100.00;97677.72;5113481;28;20202;-68
2021/01/05 07:36:24;;;;;;;19.57;12.63;;;;;;;2.20;100.00;97677.63;5113121;28;20218;-72
2021/01/05 07:38:50;;;;;;;17.37;11.87;;;;;;;2.18;100.00;97692.44;5111707;28;20206;-72
2021/01/05 07:41:18;;;;;;;18.37;12.97;;;;;;;2.17;100.00;97691.63;5113475;28;20228;-73
2021/01/05 07:43:44;;;;;;;18.33;12.03;;;;;;;2.21;100.00;97695.78;5113160;28;20695;-73
2021/01/05 07:46:10;;;;;;;18.10;11.73;;;;;;;2.20;100.00;97690.66;5113363;28;20259;-73
2021/01/05 07:48:36;;;;;;;17.10;12.00;;;;;;;2.20;100.00;97691.47;5113120;28;20672;-73
2021/01/05 07:51:04;;;;;;;15.93;10.60;;;;;;;2.24;100.00;97693.03;5113463;28;20210;-73
2021/01/05 07:53:30;;;;;;;17.40;12.00;;;;;;;2.25;100.00;97696.47;5113044;28;20214;-73
2021/01/05 07:55:56;;;;;;;15.97;11.53;;;;;;;2.17;100.00;97686.41;5113041;28;20202;-73
2021/01/05 07:58:23;;;;;;;19.23;12.03;;;;;;;2.17;100.00;97682.94;5112817;28;20341;-73
2021/01/05 08:00:49;;;;;;;17.93;11.90;;;;;;;2.15;100.00;97697.81;5113296;28;20254;-73
2021/01/05 08:03:15;;;;;;;18.23;11.57;;;;;;;2.11;100.00;97694.50;5112875;28;20312;-73
2021/01/05 08:05:41;;;;;;;16.67;11.13;;;;;;;2.11;100.00;97686.66;5111896;28;20655;-72
2021/01/05 08:08:07;;;;;;;16.80;11.37;;;;;;;2.07;100.00;97685.09;5113077;28;20256;-72
2021/01/05 08:10:35;;;;;;;19.37;12.20;;;;;;;1.98;100.00;97693.31;5113074;28;20207;-72
2021/01/05 08:13:04;;;;;;;16.23;10.87;;;;;;;1.87;100.00;97687.72;5112894;28;20296;-72
2021/01/05 08:15:31;;;;;;;17.37;11.90;;;;;;;1.88;100.00;97698.97;5112668;28;20210;-72
2021/01/05 08:17:57;;;;;;;21.63;13.13;;;;;;;1.89;100.00;97693.69;5113007;28;20256;-72
2021/01/05 08:20:26;;;;;;;18.43;11.33;;;;;;;1.89;100.00;97680.66;5115572;28;20210;-72
2021/01/05 08:22:52;;;;;;;18.60;11.87;;;;;;;1.88;100.00;97689.41;5116741;28;20238;-72
2021/01/05 08:25:19;;;;;;;17.13;11.90;;;;;;;1.79;100.00;97689.75;5116470;28;20221;-72
2021/01/05 08:27:48;;;;;;;19.33;12.20;;;;;;;1.81;100.00;97698.38;5116727;28;20214;-72
2021/01/05 08:30:16;;;;;;;19.93;12.43;;;;;;;1.82;100.00;97702.69;5114861;28;20214;-72
2021/01/05 08:32:43;;;;;;;18.37;11.90;;;;;;;1.88;100.00;97698.97;5116466;28;20210;-72
2021/01/05 08:35:10;;;;;;;18.03;12.13;;;;;;;1.80;100.00;97694.09;5116204;28;20698;-71
2021/01/05 08:37:36;;;;;;;18.80;12.30;;;;;;;1.84;100.00;97697.41;5116557;28;20210;-71
2021/01/05 08:40:04;;;;;;;19.37;13.10;;;;;;;1.84;100.00;97690.44;5116346;28;20202;-71
2021/01/05 08:42:30;;;;;;;20.77;13.37;;;;;;;1.97;100.00;97686.38;5115857;28;20226;-71
2021/01/05 08:44:56;;;;;;;20.90;12.73;;;;;;;1.93;100.00;97682.25;5116058;28;20245;-71
2021/01/05 08:47:22;;;;;;;19.77;13.17;;;;;;;1.91;100.00;97686.66;5115345;28;20230;-72
2021/01/05 08:49:49;;;;;;;20.23;13.23;;;;;;;1.83;100.00;97686.13;5115516;28;20210;-72
2021/01/05 08:52:17;;;;;;;18.63;12.43;;;;;;;1.82;100.00;97679.22;5115299;28;20229;-72
2021/01/05 08:54:43;;;;;;;18.97;12.70;;;;;;;1.88;100.00;97678.97;5115289;28;20218;-71
2021/01/05 08:57:13;;;;;;;20.37;13.03;;;;;;;1.81;100.00;97682.75;5113549;28;20218;-71
2021/01/05 08:59:39;;;;;;;20.17;12.77;;;;;;;1.84;100.00;97684.38;5115160;28;20575;-71
2021/01/05 09:02:05;;;;;;;19.23;12.93;;;;;;;1.86;100.00;97680.81;5115167;28;20214;-71
2021/01/05 09:04:31;;;;;;;21.03;13.47;;;;;;;1.95;100.00;97685.63;5112706;28;20695;-72
2021/01/05 09:06:58;;;;;;;24.50;14.77;;;;;;;2.05;100.00;97686.94;5113225;28;20206;-73
2021/01/05 09:09:24;;;;;;;20.53;13.17;;;;;;;2.03;100.00;97688.75;5114480;28;20217;-72
2021/01/05 09:11:52;;;;;;;21.50;13.60;;;;;;;2.02;100.00;97687.03;5114940;28;20214;-73
2021/01/05 09:14:18;;;;;;;18.10;12.83;;;;;;;2.10;100.00;97689.34;5114842;28;20225;-72
2021/01/05 09:16:44;;;;;;;22.10;13.40;;;;;;;2.12;100.00;97688.38;5115198;28;20206;-72
2021/01/05 09:19:10;;;;;;;21.13;13.03;;;;;;;2.10;100.00;97684.97;5114858;28;20293;-73
2021/01/05 09:21:36;;;;;;;19.60;12.63;;;;;;;2.14;100.00;97690.91;5114831;28;20349;-72
2021/01/05 09:24:04;;;;;;;19.87;12.87;;;;;;;2.11;100.00;97686.66;5112923;28;20237;-73
2021/01/05 09:26:33;;;;;;;19.83;12.60;;;;;;;2.10;100.00;97691.94;5114669;28;20228;-65
2021/01/05 09:28:59;;;;;;;19.93;13.00;;;;;;;2.14;100.00;97693.53;5114619;28;20206;-70
2021/01/05 09:31:25;;;;;;;19.30;13.10;;;;;;;2.19;100.00;97695.00;5114143;28;20216;-71
2021/01/05 09:33:51;;;;;;;19.20;12.83;;;;;;;2.17;100.00;97696.84;5114752;28;20210;-73
2021/01/05 09:36:19;;;;;;;21.23;13.70;;;;;;;2.20;100.00;97695.84;5114754;28;20217;-71
2021/01/05 09:38:45;;;;;;;17.40;11.90;;;;;;;2.25;100.00;97699.09;5114364;28;20226;-70
2021/01/05 09:41:31;;;;;;;20.57;12.60;;;;;;;2.22;100.00;97702.72;5114571;28;20207;-70
2021/01/05 09:43:57;;;;;;;21.17;12.73;;;;;;;2.20;100.00;97691.47;5114452;28;20598;-68
2021/01/05 09:46:24;;;;;;;20.33;12.47;;;;;;;2.21;100.00;97689.72;5114546;28;20211;-70
2021/01/05 09:48:51;;;;;;;19.13;13.07;;;;;;;2.24;100.00;97693.03;5112473;28;20262;-71
2021/01/05 09:51:21;;;;;;;21.10;13.50;;;;;;;2.30;100.00;97691.91;5114493;28;20380;-69
2021/01/05 09:53:47;;;;;;;19.93;12.70;;;;;;;2.36;100.00;97692.50;5114311;28;20207;-68
2021/01/05 09:56:14;;;;;;;19.17;12.83;;;;;;;2.34;100.00;97696.94;5114336;28;20210;-69
2021/01/05 09:58:41;;;;;;;18.17;12.33;;;;;;;2.38;100.00;97690.69;5114009;28;20246;-69
2021/01/05 10:01:07;;;;;;;19.07;12.73;;;;;;;2.37;100.00;97696.81;5114486;28;20549;-71
2021/01/05 10:03:33;;;;;;;20.77;13.37;;;;;;;2.44;100.00;97700.00;5114375;28;20622;-71
2021/01/05 10:05:59;;;;;;;18.53;12.67;;;;;;;2.46;100.00;97696.38;5114562;28;20245;-72
2021/01/05 10:08:26;;;;;;;20.63;12.93;;;;;;;2.52;100.00;97692.69;5114910;28;20677;-69
2021/01/05 10:10:52;;;;;;;18.37;12.30;;;;;;;2.54;100.00;97686.50;5114804;27;20644;-70
2021/01/05 10:13:18;;;;;;;20.20;12.70;;;;;;;2.57;100.00;97696.78;5114796;28;20210;-71
2021/01/05 10:15:45;;;;;;;17.80;11.93;;;;;;;2.60;100.00;97696.66;5112835;28;20355;-71
2021/01/05 10:18:12;;;;;;;17.10;11.90;;;;;;;2.53;100.00;97692.63;5114162;28;20228;-71
2021/01/05 10:20:38;;;;;;;20.20;12.60;;;;;;;2.45;100.00;97697.31;5114215;28;20206;-71
2021/01/05 10:23:04;;;;;;;19.33;11.97;;;;;;;2.48;100.00;97697.19;5114292;28;20236;-71
2021/01/05 10:25:30;;;;;;;18.23;12.40;;;;;;;2.54;100.00;97701.28;5115310;28;20209;-71
2021/01/05 10:27:56;;;;;;;21.07;12.57;;;;;;;2.45;100.00;97702.53;5114505;28;20210;-71
2021/01/05 10:30:23;;;;;;;17.83;12.13;;;;;;;2.36;100.00;97687.28;5114720;28;20203;-71
2021/01/05 10:32:49;;;;;;;19.80;12.70;;;;;;;2.36;100.00;97686.44;5114056;28;20601;-71
2021/01/05 10:35:18;;;;;;;19.57;12.60;;;;;;;2.47;100.00;97674.63;5114513;28;20262;-71
2021/01/05 10:37:45;;;;;;;20.77;12.90;;;;;;;2.49;100.00;97666.72;5114805;28;20214;-71
2021/01/05 10:40:12;;;;;;;21.77;13.43;;;;;;;2.59;100.00;97657.59;5114199;28;20206;-71
2021/01/05 10:42:42;;;;;;;19.33;12.60;;;;;;;2.62;100.00;97653.06;5110833;28;20224;-71
2021/01/05 10:45:09;;;;;;;19.53;12.80;;;;;;;2.60;100.00;97669.69;5113555;28;20206;-71
2021/01/05 10:47:35;;;;;;;19.33;13.03;;;;;;;2.71;100.00;97665.72;5113112;28;20213;-71
2021/01/05 10:50:03;;;;;;;21.57;13.13;;;;;;;2.72;100.00;97667.41;5113169;28;20307;-73
2021/01/05 10:52:29;;;;;;;19.77;12.43;;;;;;;2.75;100.00;97658.59;5113035;28;20239;-71
2021/01/05 10:54:55;;;;;;;19.60;13.10;;;;;;;2.76;100.00;97687.19;5113209;28;20248;-71
2021/01/05 10:57:21;;;;;;;17.47;11.80;;;;;;;2.76;100.00;97661.09;5113353;28;20603;-73
2021/01/05 10:59:47;;;;;;;19.57;13.00;;;;;;;2.76;100.00;97663.72;5112768;28;20261;-73
2021/01/05 11:02:14;;;;;;;19.63;11.93;;;;;;;2.77;100.00;97657.59;5113588;28;20636;-74
2021/01/05 11:04:40;;;;;;;20.97;12.57;;;;;;;2.76;100.00;97649.84;5113033;28;20225;-74
2021/01/05 11:07:11;;;;;;;18.67;12.97;;;;;;;2.89;100.00;97661.41;5112985;28;20252;-74
2021/01/05 11:09:37;;;;;;;19.23;11.97;;;;;;;2.96;100.00;97660.19;5111474;28;20217;-73
2021/01/05 11:12:06;;;;;;;19.23;13.63;;;;;;;2.95;100.00;97651.50;5112720;28;20206;-73
2021/01/05 11:14:33;;;;;;;18.30;12.30;;;;;;;2.89;100.00;97656.19;5113015;28;20218;-73
2021/01/05 11:16:59;;;;;;;18.37;12.60;;;;;;;2.85;100.00;97649.41;5112699;28;20209;-73
2021/01/05 11:19:26;;;;;;;17.80;12.17;;;;;;;2.86;100.00;97648.47;5112745;28;20217;-73
2021/01/05 11:21:53;;;;;;;19.63;12.80;;;;;;;2.93;100.00;97655.97;5112806;28;20206;-73
2021/01/05 11:24:20;;;;;;;17.03;11.57;;;;;;;2.89;100.00;97650.97;5112943;28;20234;-75
2021/01/05 11:26:46;;;;;;;20.33;12.33;;;;;;;2.92;100.00;97661.25;5113034;28;20206;-75
2021/01/05 11:29:12;;;;;;;18.00;12.10;;;;;;;2.93;100.00;97658.56;5112767;28;20217;-75